Time;durP1;ratioP1;P1;durP2;ratioP2;P2;SDS_P1;SDS_P2;PMS_P1;PMS_P2;Temp;Humidity;BMP_temperature;BMP_pressure;BME280_temperature;BME280_humidity;BME280_pressure;Samples;Min_cycle;Max_cycle;Signal;HPM_P1;HPM_P2
2023/03/15 00:01:06;;;;;;;4.00;1.30;;;9.00;96.40;;;;;;4918746;29;20616;-68
2023/03/15 00:03:36;;;;;;;4.80;1.33;;;9.00;96.40;;;;;;4913492;29;20659;-68
2023/03/15 00:06:04;;;;;;;4.37;1.30;;;9.00;96.40;;;;;;4914743;29;20201;-68
2023/03/15 00:08:32;;;;;;;4.37;1.50;;;9.00;96.60;;;;;;4923094;29;20212;-68
2023/03/15 00:11:00;;;;;;;4.10;1.33;;;8.90;96.60;;;;;;4915502;29;20263;-68
2023/03/15 00:13:28;;;;;;;3.23;1.43;;;9.00;96.70;;;;;;4912784;29;20207;-68
2023/03/15 00:15:57;;;;;;;7.60;1.60;;;9.00;96.70;;;;;;4921242;29;20256;-68
2023/03/15 00:18:27;;;;;;;3.07;1.80;;;8.90;96.70;;;;;;4916076;29;20245;-68
2023/03/15 00:20:55;;;;;;;4.77;1.77;;;8.90;96.80;;;;;;4913036;29;20658;-68
2023/03/15 00:23:22;;;;;;;2.43;1.50;;;8.90;96.90;;;;;;4917983;29;20201;-68
2023/03/15 00:25:51;;;;;;;6.30;2.03;;;8.90;96.90;;;;;;4915109;29;20202;-68
2023/03/15 00:28:18;;;;;;;5.53;1.80;;;8.80;96.80;;;;;;4914795;29;20665;-67
2023/03/15 00:30:45;;;;;;;3.13;1.33;;;8.80;96.90;;;;;;4915854;29;20195;-68
2023/03/15 00:33:15;;;;;;;2.60;1.43;;;8.80;97.00;;;;;;4932947;29;20231;-67
2023/03/15 00:35:45;;;;;;;5.83;1.70;;;8.80;97.10;;;;;;4932386;29;20266;-68
2023/03/15 00:38:12;;;;;;;4.17;1.20;;;8.80;97.10;;;;;;4914992;29;20671;-69
2023/03/15 00:40:42;;;;;;;4.03;1.70;;;8.80;97.10;;;;;;4924700;29;20220;-69
2023/03/15 00:43:09;;;;;;;3.47;1.30;;;8.80;97.10;;;;;;4917089;29;20681;-67
2023/03/15 00:45:36;;;;;;;3.77;1.27;;;8.80;97.10;;;;;;4917779;29;20199;-68
2023/03/15 00:48:04;;;;;;;3.97;1.20;;;8.70;97.00;;;;;;4918584;29;20207;-68
2023/03/15 00:50:31;;;;;;;3.27;1.13;;;8.70;97.10;;;;;;4918683;29;20541;-68
2023/03/15 00:53:00;;;;;;;2.00;1.30;;;8.70;97.20;;;;;;4911833;29;20207;-68
2023/03/15 00:55:28;;;;;;;1.20;0.83;;;8.70;97.30;;;;;;4915912;29;20567;-68
2023/03/15 00:57:56;;;;;;;1.40;0.87;;;8.60;97.30;;;;;;4917176;29;20213;-68
2023/03/15 01:00:24;;;;;;;2.33;1.03;;;8.60;97.30;;;;;;4928017;29;20220;-67
2023/03/15 01:02:52;;;;;;;4.43;1.40;;;8.70;97.20;;;;;;4915115;29;20317;-68
2023/03/15 01:05:19;;;;;;;3.17;1.60;;;8.70;97.20;;;;;;4914225;29;20206;-68
2023/03/15 01:07:47;;;;;;;4.20;1.40;;;8.70;97.10;;;;;;4915167;29;20207;-68
2023/03/15 01:10:16;;;;;;;2.67;1.20;;;8.70;97.10;;;;;;4910787;29;20192;-68
2023/03/15 01:12:44;;;;;;;3.53;1.73;;;8.60;97.10;;;;;;4915844;29;20207;-68
2023/03/15 01:15:13;;;;;;;2.00;1.00;;;8.60;97.00;;;;;;4925247;29;20205;-68
2023/03/15 01:17:41;;;;;;;3.53;1.30;;;8.60;97.10;;;;;;4927235;29;20212;-68
2023/03/15 01:20:10;;;;;;;4.50;1.60;;;8.60;97.00;;;;;;4919072;29;20219;-68
2023/03/15 01:22:37;;;;;;;3.83;1.53;;;8.60;97.00;;;;;;4926958;29;20694;-68
2023/03/15 01:25:04;;;;;;;5.00;1.30;;;8.60;96.90;;;;;;4916586;29;20244;-68
2023/03/15 01:27:34;;;;;;;4.43;1.30;;;8.60;96.90;;;;;;4922184;29;20254;-68
2023/03/15 01:30:01;;;;;;;3.50;1.40;;;8.60;97.00;;;;;;4927119;29;20215;-68
2023/03/15 01:32:29;;;;;;;4.43;1.03;;;8.50;97.00;;;;;;4921414;29;20217;-68
2023/03/15 01:34:56;;;;;;;4.67;1.40;;;8.50;97.00;;;;;;4918972;29;20210;-68
2023/03/15 01:37:23;;;;;;;3.90;1.40;;;8.60;97.10;;;;;;4918142;29;20221;-69
2023/03/15 01:39:51;;;;;;;5.50;1.53;;;8.60;97.00;;;;;;4917118;29;20318;-68
2023/03/15 01:42:18;;;;;;;3.13;1.50;;;8.60;97.00;;;;;;4916254;29;20217;-68
2023/03/15 01:44:52;;;;;;;2.57;1.30;;;8.60;96.80;;;;;;4918663;29;20222;-68
2023/03/15 01:47:20;;;;;;;2.73;1.40;;;8.60;96.80;;;;;;4914714;29;20559;-68
2023/03/15 01:49:52;;;;;;;2.63;1.17;;;8.60;96.80;;;;;;4917401;29;20584;-68
2023/03/15 01:52:24;;;;;;;4.10;1.23;;;8.60;96.70;;;;;;4913486;29;20534;-68
2023/03/15 01:55:00;;;;;;;2.53;1.17;;;8.50;96.70;;;;;;4928868;29;20230;-68
2023/03/15 01:57:31;;;;;;;2.90;1.03;;;8.50;96.80;;;;;;4917393;29;20198;-68
2023/03/15 02:00:10;;;;;;;4.30;1.40;;;8.50;96.70;;;;;;4918717;29;20222;-69
2023/03/15 02:02:45;;;;;;;2.27;1.00;;;8.60;96.80;;;;;;4912318;29;20716;-69
2023/03/15 02:05:22;;;;;;;2.30;1.27;;;8.60;96.80;;;;;;4931386;29;20289;-69
2023/03/15 02:07:50;;;;;;;1.83;1.17;;;8.60;96.70;;;;;;4923493;29;20217;-68
2023/03/15 02:10:25;;;;;;;3.13;1.17;;;8.60;96.80;;;;;;4931344;29;20194;-68
2023/03/15 02:12:56;;;;;;;3.57;1.60;;;8.70;96.80;;;;;;4927177;29;20204;-68
2023/03/15 02:15:25;;;;;;;4.03;1.33;;;8.70;96.50;;;;;;4916183;29;20236;-68
2023/03/15 02:17:54;;;;;;;5.87;1.30;;;8.70;96.40;;;;;;4912970;29;20596;-67
2023/03/15 02:20:33;;;;;;;1.60;0.97;;;8.70;96.30;;;;;;4912252;29;20216;-68
2023/03/15 02:23:03;;;;;;;1.60;0.73;;;8.60;96.30;;;;;;4911512;29;20622;-68
2023/03/15 02:25:39;;;;;;;2.80;0.93;;;8.70;96.30;;;;;;4910689;29;20310;-68
2023/03/15 02:28:11;;;;;;;1.97;1.10;;;8.70;96.20;;;;;;4912915;29;20584;-68
2023/03/15 02:30:39;;;;;;;2.17;1.20;;;8.60;96.00;;;;;;4922344;29;20199;-68
2023/03/15 02:33:10;;;;;;;2.37;1.30;;;8.70;96.00;;;;;;4916998;29;20214;-68
2023/03/15 02:35:37;;;;;;;3.37;1.30;;;8.60;96.10;;;;;;4913338;29;20188;-68
2023/03/15 02:38:05;;;;;;;3.27;1.10;;;8.60;96.00;;;;;;4929914;29;20212;-68
2023/03/15 02:40:32;;;;;;;1.20;0.93;;;8.70;96.00;;;;;;4922848;29;20364;-68
2023/03/15 02:43:05;;;;;;;5.77;1.03;;;8.70;96.00;;;;;;4915671;29;20193;-68
2023/03/15 02:45:35;;;;;;;3.33;1.00;;;8.70;96.00;;;;;;4914341;29;20185;-67
2023/03/15 02:48:04;;;;;;;1.30;0.70;;;8.70;96.10;;;;;;4914455;29;20200;-67
2023/03/15 02:50:31;;;;;;;2.67;1.10;;;8.70;96.00;;;;;;4914012;29;20201;-68
2023/03/15 02:52:58;;;;;;;2.93;1.30;;;8.70;96.00;;;;;;4911748;29;20211;-68
2023/03/15 02:55:26;;;;;;;3.70;1.30;;;8.60;95.90;;;;;;4926609;29;20207;-68
2023/03/15 02:57:53;;;;;;;4.97;1.23;;;8.70;95.90;;;;;;4914843;29;20210;-68
2023/03/15 03:00:21;;;;;;;5.23;1.40;;;8.70;95.80;;;;;;4916327;29;20458;-68
2023/03/15 03:02:49;;;;;;;6.37;2.10;;;8.70;95.70;;;;;;4911778;29;20244;-68
2023/03/15 03:05:17;;;;;;;3.17;1.23;;;8.60;95.60;;;;;;4908883;29;20362;-68
2023/03/15 03:07:45;;;;;;;3.93;1.20;;;8.50;95.70;;;;;;4924177;29;20219;-68
2023/03/15 03:10:16;;;;;;;4.03;1.20;;;8.50;95.70;;;;;;4916926;29;20209;-68
2023/03/15 03:12:52;;;;;;;1.90;0.77;;;8.50;95.70;;;;;;4926621;29;20239;-68
2023/03/15 03:15:23;;;;;;;4.13;1.20;;;8.50;95.70;;;;;;4918263;29;20794;-68
2023/03/15 03:17:53;;;;;;;1.23;0.93;;;8.50;95.60;;;;;;4908016;29;20204;-68
2023/03/15 03:20:22;;;;;;;4.83;1.53;;;8.50;95.70;;;;;;4911803;29;20276;-68
2023/03/15 03:22:50;;;;;;;5.97;1.60;;;8.50;95.60;;;;;;4931199;29;20222;-68
2023/03/15 03:25:18;;;;;;;3.83;1.27;;;8.50;95.60;;;;;;4933265;29;20287;-68
2023/03/15 03:27:47;;;;;;;2.10;1.20;;;8.40;95.60;;;;;;4914548;29;20672;-68
2023/03/15 03:30:16;;;;;;;2.93;1.13;;;8.30;95.50;;;;;;4910340;29;20222;-68
2023/03/15 03:32:48;;;;;;;3.17;1.37;;;8.30;95.90;;;;;;4911343;29;20223;-68
2023/03/15 03:35:17;;;;;;;2.80;1.30;;;8.30;95.70;;;;;;4912750;29;20214;-68
2023/03/15 03:37:45;;;;;;;1.53;0.73;;;8.30;95.60;;;;;;4913175;29;20214;-68
2023/03/15 03:40:22;;;;;;;2.93;1.20;;;8.30;95.70;;;;;;4923310;29;20319;-68
2023/03/15 03:42:49;;;;;;;1.67;1.43;;;8.30;95.70;;;;;;4919374;29;20206;-67
2023/03/15 03:45:19;;;;;;;1.73;0.80;;;8.30;95.60;;;;;;4919949;29;20219;-67
2023/03/15 03:47:50;;;;;;;1.70;1.10;;;8.30;95.70;;;;;;4913111;29;20202;-67
2023/03/15 03:50:19;;;;;;;2.10;1.10;;;8.20;95.50;;;;;;4913363;29;20207;-68
2023/03/15 03:52:47;;;;;;;4.70;1.30;;;8.30;95.50;;;;;;4912774;29;20212;-67
2023/03/15 03:55:23;;;;;;;5.80;1.47;;;8.30;95.50;;;;;;4916809;29;20671;-69
2023/03/15 03:57:52;;;;;;;4.03;1.13;;;8.20;95.30;;;;;;4910086;29;20459;-68
2023/03/15 04:00:37;;;;;;;3.83;1.20;;;8.20;95.30;;;;;;4909610;29;20253;-68
2023/03/15 04:03:07;;;;;;;2.03;0.80;;;8.20;95.30;;;;;;4907530;29;20244;-68
2023/03/15 04:05:38;;;;;;;4.17;1.20;;;8.20;95.30;;;;;;4914029;29;22053;-68
2023/03/15 04:08:05;;;;;;;1.03;0.90;;;8.30;95.40;;;;;;4916125;29;20214;-69
2023/03/15 04:10:37;;;;;;;4.93;1.20;;;8.20;95.40;;;;;;4921136;29;20789;-69
2023/03/15 04:13:05;;;;;;;2.63;1.20;;;8.20;95.30;;;;;;4930733;29;20264;-68
2023/03/15 04:15:32;;;;;;;3.40;1.37;;;8.20;95.30;;;;;;4923051;29;20205;-69
2023/03/15 04:18:04;;;;;;;5.77;1.20;;;8.20;95.40;;;;;;4915372;29;20206;-69
2023/03/15 04:20:36;;;;;;;3.20;0.93;;;8.20;95.40;;;;;;4911414;29;20219;-69
2023/03/15 04:23:06;;;;;;;2.37;1.00;;;8.10;95.40;;;;;;4908852;29;20556;-68
2023/03/15 04:25:56;;;;;;;2.90;1.10;;;8.10;95.50;;;;;;4910030;29;20224;-68
2023/03/15 04:28:38;;;;;;;2.10;0.90;;;8.10;95.50;;;;;;4915943;29;20203;-69
2023/03/15 04:31:36;;;;;;;2.17;0.93;;;8.00;95.60;;;;;;4901262;29;20236;-68
2023/03/15 04:34:27;;;;;;;7.07;1.57;;;8.00;95.70;;;;;;4908831;29;20218;-69
2023/03/15 04:37:01;;;;;;;2.43;1.10;;;8.00;95.80;;;;;;4908761;29;20296;-69
2023/03/15 04:39:37;;;;;;;3.63;1.10;;;8.00;95.90;;;;;;4923393;29;20329;-68
2023/03/15 04:42:35;;;;;;;1.57;0.97;;;7.90;95.80;;;;;;4912959;29;20232;-68
2023/03/15 04:45:30;;;;;;;1.23;0.80;;;7.90;96.00;;;;;;4907735;29;20582;-68
2023/03/15 04:48:13;;;;;;;4.10;1.10;;;7.90;96.10;;;;;;4923053;29;20204;-68
2023/03/15 04:50:51;;;;;;;3.13;1.00;;;7.90;96.20;;;;;;4915633;29;20277;-67
2023/03/15 04:53:35;;;;;;;4.43;0.90;;;7.90;96.30;;;;;;4915545;29;20202;-67
2023/03/15 04:56:35;;;;;;;1.00;0.90;;;7.80;96.40;;;;;;4912528;29;20260;-67
2023/03/15 04:59:22;;;;;;;3.40;1.10;;;7.80;96.40;;;;;;4912332;29;20233;-68
2023/03/15 05:02:08;;;;;;;2.27;1.13;;;7.80;96.60;;;;;;4912189;29;20246;-67
2023/03/15 05:04:59;;;;;;;1.23;0.80;;;7.80;96.80;;;;;;4912156;29;20640;-67
2023/03/15 05:07:39;;;;;;;1.93;0.90;;;7.80;96.80;;;;;;4912589;29;20191;-68
2023/03/15 05:10:22;;;;;;;4.13;1.20;;;7.70;96.90;;;;;;4918132;29;20205;-68
2023/03/15 05:13:10;;;;;;;1.80;1.23;;;7.70;97.00;;;;;;4930848;29;20226;-68
2023/03/15 05:16:07;;;;;;;2.03;1.30;;;7.70;97.00;;;;;;4918466;29;20217;-68
2023/03/15 05:18:52;;;;;;;4.03;1.10;;;7.70;97.00;;;;;;4911208;29;20330;-67
2023/03/15 05:21:43;;;;;;;3.73;1.10;;;7.70;97.00;;;;;;4911500;29;20213;-68
2023/03/15 05:24:33;;;;;;;2.93;1.50;;;7.70;97.10;;;;;;4913106;29;20303;-68
2023/03/15 05:27:16;;;;;;;2.67;1.20;;;7.70;97.00;;;;;;4914733;29;20338;-68
2023/03/15 05:30:10;;;;;;;5.03;1.20;;;7.80;97.00;;;;;;4907501;29;20213;-68
2023/03/15 05:32:44;;;;;;;2.00;1.17;;;7.80;96.90;;;;;;4912525;29;20210;-68
2023/03/15 05:35:14;;;;;;;3.40;1.27;;;7.80;96.80;;;;;;4913205;29;20198;-68
2023/03/15 05:37:47;;;;;;;7.00;1.50;;;7.70;96.70;;;;;;4912218;29;20829;-68
2023/03/15 05:40:29;;;;;;;1.63;1.33;;;7.70;96.60;;;;;;4913939;29;20194;-68
2023/03/15 05:43:22;;;;;;;3.20;1.20;;;7.70;96.60;;;;;;4926789;29;20800;-68
2023/03/15 05:46:08;;;;;;;2.80;0.90;;;7.70;96.50;;;;;;4923106;29;20206;-68
2023/03/15 05:48:56;;;;;;;0.90;0.70;;;7.70;96.50;;;;;;4912667;29;20222;-68
2023/03/15 05:51:29;;;;;;;1.90;1.00;;;7.70;96.50;;;;;;4915047;29;21036;-68
2023/03/15 05:54:23;;;;;;;3.20;1.00;;;7.70;96.50;;;;;;4912438;29;20213;-68
2023/03/15 05:57:10;;;;;;;2.23;1.00;;;7.80;96.40;;;;;;4912196;29;20214;-67
2023/03/15 05:59:55;;;;;;;2.30;1.20;;;7.90;96.30;;;;;;4929310;29;20664;-68
2023/03/15 06:02:46;;;;;;;2.70;1.20;;;7.80;96.10;;;;;;4917144;29;20321;-68
2023/03/15 06:05:29;;;;;;;1.33;1.00;;;7.90;96.20;;;;;;4911156;29;20578;-68
2023/03/15 06:07:59;;;;;;;2.50;1.23;;;7.90;96.30;;;;;;4912170;29;20684;-68
2023/03/15 06:10:26;;;;;;;1.80;1.03;;;8.00;96.30;;;;;;4912313;29;20198;-69
2023/03/15 06:12:55;;;;;;;1.07;0.87;;;8.00;96.30;;;;;;4919192;29;20226;-68
2023/03/15 06:15:23;;;;;;;2.63;1.37;;;8.10;96.40;;;;;;4917107;29;20258;-69
2023/03/15 06:17:53;;;;;;;2.90;1.20;;;8.10;96.40;;;;;;4909458;29;20266;-68
2023/03/15 06:20:21;;;;;;;1.83;1.33;;;8.10;96.40;;;;;;4917737;29;20587;-69
2023/03/15 06:22:48;;;;;;;1.00;0.97;;;8.20;96.30;;;;;;4920522;29;20230;-68
2023/03/15 06:25:28;;;;;;;4.03;1.70;;;8.20;96.40;;;;;;4924344;29;20205;-69
2023/03/15 06:27:55;;;;;;;3.50;1.90;;;8.20;96.40;;;;;;4918934;29;20275;-68
2023/03/15 06:30:24;;;;;;;2.30;1.37;;;8.30;96.30;;;;;;4916572;29;20210;-68
2023/03/15 06:32:57;;;;;;;1.53;1.10;;;8.40;96.10;;;;;;4924168;29;20222;-68
2023/03/15 06:35:24;;;;;;;2.53;1.47;;;8.40;96.00;;;;;;4919143;29;20228;-67
2023/03/15 06:37:51;;;;;;;3.13;1.50;;;8.50;95.90;;;;;;4916515;29;20552;-68
2023/03/15 06:40:19;;;;;;;1.93;1.40;;;8.50;95.80;;;;;;4917816;29;20206;-67
2023/03/15 06:42:50;;;;;;;1.27;1.17;;;8.60;95.70;;;;;;4910757;29;20227;-68
2023/03/15 06:45:20;;;;;;;1.40;1.13;;;8.70;95.70;;;;;;4912501;29;20215;-69
2023/03/15 06:47:47;;;;;;;1.20;1.10;;;8.70;95.50;;;;;;4931625;29;20211;-67
2023/03/15 06:50:18;;;;;;;3.00;1.30;;;8.70;95.20;;;;;;4929835;29;20218;-68
2023/03/15 06:52:45;;;;;;;2.10;1.00;;;8.70;95.10;;;;;;4912427;29;20657;-67
2023/03/15 06:55:16;;;;;;;3.13;1.30;;;8.70;95.10;;;;;;4925352;29;20212;-68
2023/03/15 06:57:44;;;;;;;2.60;0.93;;;8.70;95.00;;;;;;4915088;29;20636;-68
2023/03/15 07:00:16;;;;;;;3.97;1.63;;;8.70;95.00;;;;;;4921772;29;20194;-68
2023/03/15 07:02:46;;;;;;;3.53;1.60;;;8.70;94.90;;;;;;4915917;29;20237;-67
2023/03/15 07:05:13;;;;;;;2.30;1.17;;;8.60;94.60;;;;;;4912307;29;20231;-68
2023/03/15 07:07:41;;;;;;;4.27;1.60;;;8.60;94.70;;;;;;4911162;29;20622;-68
2023/03/15 07:10:10;;;;;;;2.10;1.23;;;8.60;94.70;;;;;;4910858;29;20196;-68
2023/03/15 07:12:37;;;;;;;3.70;1.33;;;8.60;94.60;;;;;;4911843;29;20201;-68
2023/03/15 07:15:05;;;;;;;2.10;1.10;;;8.60;94.50;;;;;;4923714;29;20227;-68
2023/03/15 07:17:35;;;;;;;1.20;1.10;;;8.60;94.60;;;;;;4913900;29;20208;-68
2023/03/15 07:20:04;;;;;;;2.70;1.67;;;8.60;94.50;;;;;;4912702;29;20196;-68
2023/03/15 07:22:31;;;;;;;2.20;1.60;;;8.60;94.30;;;;;;4910599;29;20285;-68
2023/03/15 07:25:00;;;;;;;2.87;1.43;;;8.50;94.30;;;;;;4912616;29;20213;-69
2023/03/15 07:27:28;;;;;;;1.87;1.37;;;8.50;94.30;;;;;;4912143;29;20347;-68
2023/03/15 07:29:55;;;;;;;4.63;1.33;;;8.40;94.30;;;;;;4916039;29;20207;-69
2023/03/15 07:32:22;;;;;;;2.27;1.20;;;8.40;94.30;;;;;;4909198;29;20559;-68
2023/03/15 07:34:50;;;;;;;2.50;1.33;;;8.40;94.50;;;;;;4910005;29;20261;-69
2023/03/15 07:37:17;;;;;;;3.70;1.40;;;8.40;94.60;;;;;;4911717;29;20218;-67
2023/03/15 07:39:44;;;;;;;1.93;1.37;;;8.50;94.70;;;;;;4938472;29;20234;-69
2023/03/15 07:42:13;;;;;;;1.57;0.93;;;8.50;94.60;;;;;;4915494;29;20690;-68
2023/03/15 07:44:42;;;;;;;1.10;0.90;;;8.60;94.60;;;;;;4913098;29;20282;-68
2023/03/15 07:47:10;;;;;;;1.10;1.00;;;8.70;94.50;;;;;;4917134;29;20220;-68
2023/03/15 07:49:37;;;;;;;1.80;1.20;;;8.70;94.40;;;;;;4914588;29;20213;-68
2023/03/15 07:52:04;;;;;;;1.83;1.03;;;8.80;94.30;;;;;;4914306;29;20208;-68
2023/03/15 07:54:33;;;;;;;2.73;1.47;;;8.80;94.30;;;;;;4909398;29;20221;-67
2023/03/15 07:57:00;;;;;;;4.90;1.57;;;8.80;93.90;;;;;;4909878;29;20402;-68
2023/03/15 07:59:29;;;;;;;2.57;1.37;;;8.70;93.80;;;;;;4910721;29;20198;-68
2023/03/15 08:01:56;;;;;;;3.93;1.23;;;8.70;93.80;;;;;;4909909;29;20231;-68
2023/03/15 08:04:23;;;;;;;5.20;1.67;;;8.70;93.80;;;;;;4908435;29;20292;-68
2023/03/15 08:06:50;;;;;;;2.33;1.23;;;8.70;93.70;;;;;;4909464;29;20204;-67
2023/03/15 08:09:17;;;;;;;3.47;1.20;;;8.70;93.60;;;;;;4913283;29;20210;-68
2023/03/15 08:11:45;;;;;;;1.23;1.00;;;8.70;93.60;;;;;;4918063;29;20294;-68
2023/03/15 08:14:12;;;;;;;2.97;1.53;;;8.70;93.50;;;;;;4919355;29;20254;-68
2023/03/15 08:16:40;;;;;;;1.90;1.20;;;8.80;93.50;;;;;;4909976;29;20208;-68
2023/03/15 08:19:08;;;;;;;2.40;1.30;;;8.70;93.30;;;;;;4908221;29;20204;-68
2023/03/15 08:21:35;;;;;;;2.40;1.60;;;8.70;93.30;;;;;;4910145;29;20249;-68
2023/03/15 08:24:02;;;;;;;1.40;1.30;;;8.70;93.40;;;;;;4909237;29;20497;-67
2023/03/15 08:26:29;;;;;;;2.73;1.13;;;8.70;93.40;;;;;;4917966;29;20294;-67
2023/03/15 08:28:56;;;;;;;2.93;1.00;;;8.70;93.30;;;;;;4914584;29;20264;-67
2023/03/15 08:31:23;;;;;;;2.53;1.30;;;8.80;93.50;;;;;;4914449;29;20202;-68
2023/03/15 08:33:52;;;;;;;3.90;1.30;;;8.90;93.40;;;;;;4918171;29;20254;-68
2023/03/15 08:36:21;;;;;;;2.00;1.13;;;9.10;93.40;;;;;;4914938;29;20205;-68
2023/03/15 08:38:48;;;;;;;2.13;1.10;;;9.30;93.30;;;;;;4912464;29;20226;-69
2023/03/15 08:41:16;;;;;;;4.17;1.53;;;9.30;93.00;;;;;;4915489;29;20232;-66
2023/03/15 08:43:43;;;;;;;3.13;1.20;;;9.30;92.50;;;;;;4933514;29;20200;-68
2023/03/15 08:46:10;;;;;;;2.67;1.43;;;9.20;92.50;;;;;;4931268;29;20716;-68
2023/03/15 08:48:37;;;;;;;1.43;1.30;;;9.20;92.30;;;;;;4910071;29;20816;-68
2023/03/15 08:51:07;;;;;;;1.37;1.10;;;9.10;92.30;;;;;;4909226;29;20287;-68
2023/03/15 08:53:36;;;;;;;1.13;1.00;;;9.10;92.20;;;;;;4910029;29;20243;-68
2023/03/15 08:56:03;;;;;;;2.40;1.40;;;9.10;92.30;;;;;;4910148;29;20247;-67
2023/03/15 08:58:31;;;;;;;3.27;1.40;;;9.10;91.70;;;;;;4909450;29;20372;-69
2023/03/15 09:00:58;;;;;;;1.40;1.30;;;9.00;91.20;;;;;;4911578;29;20237;-67
2023/03/15 09:03:25;;;;;;;1.93;1.03;;;9.00;91.40;;;;;;4907624;29;20977;-67
2023/03/15 09:05:56;;;;;;;1.87;1.40;;;9.10;91.50;;;;;;4920816;29;20205;-67
2023/03/15 09:08:25;;;;;;;2.47;1.20;;;9.10;91.30;;;;;;4923027;29;20193;-67
2023/03/15 09:10:55;;;;;;;1.10;1.00;;;9.10;91.10;;;;;;4921141;29;20205;-68
2023/03/15 09:13:22;;;;;;;3.37;1.33;;;9.40;90.70;;;;;;4909437;29;20279;-68
2023/03/15 09:15:50;;;;;;;1.57;1.20;;;9.80;90.50;;;;;;4909053;29;20207;-67
2023/03/15 09:18:18;;;;;;;3.97;1.50;;;10.20;89.70;;;;;;4908853;29;20333;-68
2023/03/15 09:20:45;;;;;;;3.10;1.47;;;10.70;89.20;;;;;;4909746;29;20216;-67
2023/03/15 09:23:13;;;;;;;3.13;1.40;;;11.10;87.80;;;;;;4910321;29;20224;-67
2023/03/15 09:25:42;;;;;;;1.47;1.10;;;11.70;84.40;;;;;;4908150;29;20203;-68
2023/03/15 09:28:11;;;;;;;1.90;0.97;;;11.70;82.70;;;;;;4918151;29;20672;-68
2023/03/15 09:30:40;;;;;;;4.67;1.53;;;11.60;81.90;;;;;;4914587;29;20673;-68
2023/03/15 09:33:08;;;;;;;2.23;1.30;;;11.40;79.50;;;;;;4911954;29;20210;-68
2023/03/15 09:35:38;;;;;;;3.03;1.23;;;11.20;79.50;;;;;;4910375;29;20287;-69
2023/03/15 09:38:05;;;;;;;5.20;1.50;;;11.00;80.00;;;;;;4912532;29;20217;-69
2023/03/15 09:40:34;;;;;;;2.70;1.40;;;10.80;78.10;;;;;;4911743;29;20649;-67
2023/03/15 09:43:09;;;;;;;2.20;1.20;;;10.60;77.80;;;;;;4911415;29;20253;-67
2023/03/15 09:46:00;;;;;;;3.60;1.10;;;10.40;76.50;;;;;;4911426;29;20267;-67
2023/03/15 09:48:36;;;;;;;2.20;1.33;;;10.30;76.40;;;;;;4910886;29;20202;-67
2023/03/15 09:51:10;;;;;;;1.00;0.90;;;10.60;76.90;;;;;;4927328;28;20202;-67
2023/03/15 09:53:41;;;;;;;2.90;1.20;;;10.30;77.10;;;;;;4914270;29;20212;-68
2023/03/15 09:56:19;;;;;;;1.77;1.20;;;10.80;77.50;;;;;;4911705;29;20202;-67
2023/03/15 09:58:50;;;;;;;2.57;1.20;;;11.40;76.70;;;;;;4911449;29;20207;-68
2023/03/15 10:01:18;;;;;;;3.37;1.17;;;11.80;74.70;;;;;;4911119;29;20197;-68
2023/03/15 10:03:49;;;;;;;1.57;1.03;;;11.70;75.10;;;;;;4909718;29;20238;-69
2023/03/15 10:06:19;;;;;;;2.90;1.00;;;12.20;76.20;;;;;;4936233;29;20210;-68
2023/03/15 10:08:49;;;;;;;1.33;1.10;;;13.20;74.80;;;;;;4920412;29;20205;-68
2023/03/15 10:11:23;;;;;;;1.80;0.93;;;13.50;72.40;;;;;;4915526;29;20204;-68
2023/03/15 10:14:08;;;;;;;3.40;1.47;;;13.30;72.20;;;;;;4927585;29;20386;-68
2023/03/15 10:16:40;;;;;;;3.00;1.40;;;13.00;72.20;;;;;;4918156;29;20198;-69
2023/03/15 10:19:17;;;;;;;2.97;1.50;;;13.00;71.80;;;;;;4917811;29;20208;-69
2023/03/15 10:21:53;;;;;;;2.73;1.23;;;12.80;71.50;;;;;;4928170;29;20227;-68
2023/03/15 10:24:25;;;;;;;1.20;1.10;;;12.50;71.50;;;;;;4923941;29;20721;-68
2023/03/15 10:26:53;;;;;;;1.73;1.30;;;12.20;71.30;;;;;;4915136;29;20196;-67
2023/03/15 10:29:25;;;;;;;2.33;1.10;;;12.00;72.10;;;;;;4913933;29;20206;-67
2023/03/15 10:31:54;;;;;;;3.20;1.30;;;12.20;72.60;;;;;;4918310;29;20577;-67
2023/03/15 10:34:22;;;;;;;3.33;1.53;;;12.30;71.10;;;;;;4924479;29;20212;-67
2023/03/15 10:36:54;;;;;;;6.67;1.43;;;13.00;71.00;;;;;;4920493;29;20206;-68
2023/03/15 10:39:30;;;;;;;6.33;1.67;;;14.40;69.30;;;;;;4912518;29;20212;-68
2023/03/15 10:41:57;;;;;;;3.03;1.20;;;15.40;62.70;;;;;;4911184;29;20285;-67
2023/03/15 10:44:27;;;;;;;2.77;1.20;;;15.20;60.80;;;;;;4911819;29;20313;-67
2023/03/15 10:47:03;;;;;;;3.00;0.97;;;14.60;59.70;;;;;;4925791;28;20598;-67
2023/03/15 10:49:35;;;;;;;4.33;1.30;;;14.00;59.50;;;;;;4910179;29;20210;-67
2023/03/15 10:52:02;;;;;;;3.03;1.27;;;13.50;57.50;;;;;;4914533;29;20572;-67
2023/03/15 10:54:32;;;;;;;1.47;0.90;;;13.80;56.00;;;;;;4919061;29;20203;-67
2023/03/15 10:57:03;;;;;;;2.50;1.20;;;15.60;55.70;;;;;;4921700;29;20255;-67
2023/03/15 10:59:33;;;;;;;2.30;1.00;;;17.80;51.90;;;;;;4911278;29;20206;-68
2023/03/15 11:02:22;;;;;;;1.83;1.40;;;19.70;48.10;;;;;;4909541;29;20534;-69
2023/03/15 11:04:59;;;;;;;2.03;1.20;;;19.30;44.80;;;;;;4911424;29;20209;-69
2023/03/15 11:07:26;;;;;;;4.27;1.30;;;19.40;46.70;;;;;;4919899;29;20289;-68
2023/03/15 11:09:55;;;;;;;4.37;1.40;;;18.90;44.70;;;;;;4917654;29;20199;-68
2023/03/15 11:12:24;;;;;;;4.17;1.50;;;18.10;44.70;;;;;;4916512;29;20213;-68
2023/03/15 11:14:59;;;;;;;3.93;1.40;;;17.50;45.20;;;;;;4912920;29;20199;-69
2023/03/15 11:17:30;;;;;;;2.10;1.10;;;16.70;45.50;;;;;;4924082;29;20213;-68
2023/03/15 11:20:09;;;;;;;2.93;1.20;;;15.80;46.20;;;;;;4934442;29;20217;-69
2023/03/15 11:22:36;;;;;;;6.23;1.83;;;15.10;47.20;;;;;;4913821;29;20210;-68
2023/03/15 11:25:04;;;;;;;3.60;1.53;;;14.50;47.20;;;;;;4915726;29;20589;-69
2023/03/15 11:27:31;;;;;;;5.20;1.50;;;14.00;47.60;;;;;;4914363;29;20711;-67
2023/03/15 11:30:03;;;;;;;2.47;1.47;;;13.90;47.90;;;;;;4917116;29;20297;-68
2023/03/15 11:32:32;;;;;;;4.00;1.33;;;14.50;47.90;;;;;;4912801;29;20950;-68
2023/03/15 11:35:04;;;;;;;4.87;1.80;;;14.30;46.90;;;;;;4910734;29;20682;-68
2023/03/15 11:37:38;;;;;;;3.83;1.97;;;14.00;47.50;;;;;;4910379;29;20661;-67
2023/03/15 11:40:13;;;;;;;5.10;1.60;;;14.80;48.30;;;;;;4909642;29;20348;-67
2023/03/15 11:42:48;;;;;;;1.43;1.07;;;16.20;47.20;;;;;;4922106;29;20676;-67
2023/03/15 11:45:22;;;;;;;2.03;1.33;;;17.80;46.50;;;;;;4928995;29;20720;-69
2023/03/15 11:47:55;;;;;;;2.67;1.60;;;19.10;43.10;;;;;;4914282;29;20217;-69
2023/03/15 11:50:22;;;;;;;6.63;1.33;;;20.60;41.60;;;;;;4912065;29;20326;-69
2023/03/15 11:52:51;;;;;;;4.53;1.80;;;21.80;39.10;;;;;;4916592;29;20217;-68
2023/03/15 11:55:24;;;;;;;9.25;1.83;;;23.00;37.20;;;;;;4934154;29;20232;-69
2023/03/15 11:57:52;;;;;;;4.20;1.65;;;24.00;35.80;;;;;;4924359;29;20202;-68
2023/03/15 12:00:49;;;;;;;2.90;1.25;;;24.60;34.30;;;;;;4918590;29;20206;-69
2023/03/15 12:03:33;;;;;;;4.78;1.73;;;25.10;33.90;;;;;;4913470;29;20231;-68
2023/03/15 12:06:09;;;;;;;3.40;1.48;;;24.70;31.10;;;;;;4914406;29;20194;-68
2023/03/15 12:08:50;;;;;;;3.58;1.42;;;24.70;32.60;;;;;;4922136;29;20214;-69
2023/03/15 12:11:40;;;;;;;3.70;1.35;;;25.50;31.30;;;;;;4926099;29;20293;-69
2023/03/15 12:14:27;;;;;;;7.85;1.38;;;26.20;30.00;;;;;;4928497;29;20201;-69
2023/03/15 12:17:41;;;;;;;2.58;1.35;;;26.90;28.90;;;;;;4932344;29;20272;-68
2023/03/15 12:20:20;;;;;;;8.07;1.75;;;27.30;27.60;;;;;;4924530;29;20757;-68
2023/03/15 12:22:53;;;;;;;2.92;1.20;;;27.40;27.00;;;;;;4917945;29;20226;-69
2023/03/15 12:25:32;;;;;;;1.67;1.30;;;27.80;27.80;;;;;;4927610;29;20208;-69
2023/03/15 12:28:04;;;;;;;3.47;1.25;;;27.40;27.80;;;;;;4926809;29;20276;-69
2023/03/15 12:30:38;;;;;;;3.10;1.38;;;27.40;26.90;;;;;;4933954;29;20197;-68
2023/03/15 12:33:15;;;;;;;3.17;1.10;;;27.70;27.40;;;;;;4932738;29;20312;-69
2023/03/15 12:35:43;;;;;;;2.83;1.42;;;27.40;27.20;;;;;;4917128;29;20302;-69
2023/03/15 12:38:15;;;;;;;3.05;1.30;;;27.00;26.60;;;;;;4933164;29;20244;-69
2023/03/15 12:40:51;;;;;;;5.15;1.60;;;27.00;26.60;;;;;;4929469;29;20681;-69
2023/03/15 12:43:38;;;;;;;5.57;1.65;;;27.00;27.00;;;;;;4924803;29;20217;-68
2023/03/15 12:46:05;;;;;;;6.57;1.70;;;27.00;26.20;;;;;;4917547;29;20659;-69
2023/03/15 12:48:34;;;;;;;4.30;1.98;;;26.80;26.00;;;;;;4913485;29;20210;-69
2023/03/15 12:51:13;;;;;;;4.25;1.55;;;27.20;25.80;;;;;;4920607;29;20209;-69
2023/03/15 12:53:51;;;;;;;2.10;1.23;;;27.80;26.10;;;;;;4925222;29;20269;-69
2023/03/15 12:56:50;;;;;;;6.00;1.63;;;28.70;26.10;;;;;;4933535;29;20302;-68
2023/03/15 12:59:32;;;;;;;4.22;1.48;;;28.90;25.50;;;;;;4932759;29;20202;-69
2023/03/15 13:02:03;;;;;;;2.67;1.50;;;29.40;25.70;;;;;;4919043;29;20234;-68
2023/03/15 13:04:32;;;;;;;6.88;1.90;;;29.30;24.50;;;;;;4912747;29;20199;-67
2023/03/15 13:07:17;;;;;;;3.38;1.50;;;27.80;24.40;;;;;;4913293;29;20659;-68
2023/03/15 13:10:03;;;;;;;2.42;1.30;;;25.90;25.30;;;;;;4940079;29;20225;-68
2023/03/15 13:12:39;;;;;;;3.25;1.67;;;24.10;26.30;;;;;;4918587;29;20286;-69
2023/03/15 13:15:13;;;;;;;2.70;1.40;;;22.60;26.90;;;;;;4926836;29;20221;-69
2023/03/15 13:17:47;;;;;;;3.72;1.38;;;21.20;27.50;;;;;;4931375;29;20206;-69
2023/03/15 13:20:38;;;;;;;4.15;1.70;;;20.30;28.10;;;;;;4917804;29;20608;-68